Time;durP1;ratioP1;P1;durP2;ratioP2;P2;SDS_P1;SDS_P2;PMS_P1;PMS_P2;Temp;Humidity;BMP_temperature;BMP_pressure;BME280_temperature;BME280_humidity;BME280_pressure;Samples;Min_cycle;Max_cycle;Signal;HPM_P1;HPM_P2
2021/05/02 00:01:59;;;;;;;52.25;23.48;;;;;;;6.57;100.00;94464.34;5046368;28;20064;-65
2021/05/02 00:04:25;;;;;;;50.28;20.20;;;;;;;6.55;100.00;94472.53;5046558;28;20112;-66
2021/05/02 00:06:52;;;;;;;58.28;25.00;;;;;;;6.59;100.00;94476.16;5046178;28;20505;-65
2021/05/02 00:09:17;;;;;;;35.83;15.70;;;;;;;6.48;100.00;94474.81;5046091;28;20080;-64
2021/05/02 00:11:43;;;;;;;22.13;9.88;;;;;;;6.38;100.00;94478.41;5044649;28;20049;-65
2021/05/02 00:14:08;;;;;;;50.95;21.73;;;;;;;6.49;100.00;94482.44;5028360;28;20025;-65
2021/05/02 00:16:35;;;;;;;58.80;23.23;;;;;;;6.43;100.00;94472.25;5026283;28;20496;-65
2021/05/02 00:19:02;;;;;;;43.15;18.60;;;;;;;6.22;100.00;94435.66;5025107;28;20060;-65
2021/05/02 00:21:27;;;;;;;66.38;25.20;;;;;;;6.74;100.00;94491.72;5025384;28;20091;-65
2021/05/02 00:23:53;;;;;;;44.67;18.63;;;;;;;6.57;100.00;94482.84;5025389;28;20116;-65
2021/05/02 00:26:19;;;;;;;51.17;22.33;;;;;;;6.66;100.00;94487.13;5046597;28;20043;-66
2021/05/02 00:28:49;;;;;;;33.28;16.50;;;;;;;6.54;100.00;94505.31;5027481;28;20033;-65
2021/05/02 00:31:17;;;;;;;52.55;23.25;;;;;;;6.54;100.00;94499.25;5025428;28;20399;-64
2021/05/02 00:33:43;;;;;;;48.63;20.83;;;;;;;6.42;100.00;94500.53;5015385;28;20034;-65
2021/05/02 00:36:10;;;;;;;45.47;19.48;;;;;;;6.47;100.00;94504.94;5012983;28;20045;-65
2021/05/02 00:38:37;;;;;;;57.33;21.52;;;;;;;6.67;100.00;94509.84;5014393;28;20022;-64
2021/05/02 00:41:34;;;;;;;50.55;20.13;;;;;;;6.54;100.00;94513.25;5012686;28;20045;-64
2021/05/02 00:44:10;;;;;;;36.13;16.55;;;;;;;6.55;100.00;94521.97;5031492;28;20688;-64
2021/05/02 00:46:56;;;;;;;39.15;16.42;;;;;;;6.50;100.00;94520.22;5031782;28;20042;-63
2021/05/02 00:49:38;;;;;;;23.85;11.60;;;;;;;6.33;100.00;94535.84;5032198;28;20042;-64
2021/05/02 00:52:14;;;;;;;32.55;16.00;;;;;;;6.22;100.00;94541.31;5031425;28;20495;-64
2021/05/02 00:54:46;;;;;;;25.00;13.15;;;;;;;6.10;100.00;94530.44;5032425;28;20419;-64
2021/05/02 00:57:19;;;;;;;33.78;15.40;;;;;;;6.05;100.00;94567.47;5031888;28;20037;-64
2021/05/02 01:00:09;;;;;;;20.45;11.75;;;;;;;6.00;100.00;94557.00;5032110;28;20041;-64
2021/05/02 01:02:35;;;;;;;27.55;14.05;;;;;;;5.98;100.00;94567.03;5033263;28;20037;-64
2021/05/02 01:05:04;;;;;;;23.85;13.82;;;;;;;5.96;100.00;94556.78;5032156;28;20124;-63
2021/05/02 01:07:36;;;;;;;33.83;15.63;;;;;;;6.03;100.00;94574.09;5031717;28;20124;-64
2021/05/02 01:10:06;;;;;;;31.30;13.15;;;;;;;5.87;100.00;94576.16;5031957;28;20057;-64
2021/05/02 01:12:36;;;;;;;32.78;16.80;;;;;;;5.91;100.00;94577.16;5030929;28;20120;-64
2021/05/02 01:15:02;;;;;;;36.30;17.92;;;;;;;5.93;100.00;94577.69;5032048;28;20029;-64
2021/05/02 01:17:28;;;;;;;24.10;13.52;;;;;;;5.86;100.00;94598.34;5033483;28;20032;-64
2021/05/02 01:19:53;;;;;;;20.20;11.60;;;;;;;5.79;100.00;94592.66;5030448;28;20079;-64
2021/05/02 01:22:21;;;;;;;25.63;13.15;;;;;;;5.70;100.00;94603.84;5031459;28;20534;-64
2021/05/02 01:24:52;;;;;;;20.58;13.13;;;;;;;5.74;100.00;94598.81;5031802;28;20034;-63
2021/05/02 01:27:27;;;;;;;15.00;8.73;;;;;;;5.51;100.00;94604.94;5031580;28;20044;-63
2021/05/02 01:29:54;;;;;;;13.38;8.57;;;;;;;5.39;100.00;94610.63;5041925;23;20052;-64
2021/05/02 01:32:21;;;;;;;2.28;2.08;;;;;;;5.23;100.00;94615.31;5033213;28;20108;-64
2021/05/02 01:34:47;;;;;;;11.48;7.90;;;;;;;5.21;100.00;94606.88;5031440;28;20045;-64
2021/05/02 01:37:13;;;;;;;9.95;7.85;;;;;;;5.23;100.00;94602.13;5031025;28;20045;-64
2021/05/02 01:39:39;;;;;;;9.88;7.30;;;;;;;5.24;100.00;94622.16;5031456;28;20041;-64
2021/05/02 01:42:04;;;;;;;9.15;7.28;;;;;;;5.18;100.00;94607.47;5031031;28;20479;-65
2021/05/02 01:44:30;;;;;;;7.28;5.50;;;;;;;5.17;100.00;94622.50;5031108;28;20053;-65
2021/05/02 01:46:58;;;;;;;9.10;7.93;;;;;;;5.37;100.00;94618.03;5030877;28;20377;-65
2021/05/02 01:49:25;;;;;;;11.30;7.72;;;;;;;5.16;100.00;94620.91;5031091;28;20042;-65
2021/05/02 01:51:50;;;;;;;8.82;7.03;;;;;;;5.06;100.00;94623.66;5030608;28;20034;-65
2021/05/02 01:54:16;;;;;;;9.90;7.82;;;;;;;5.13;100.00;94633.88;5031231;28;20533;-65
2021/05/02 01:56:44;;;;;;;7.30;5.80;;;;;;;5.18;100.00;94645.16;5030778;28;20021;-65
2021/05/02 01:59:13;;;;;;;7.68;4.75;;;;;;;5.07;100.00;94650.84;5033038;28;20100;-65
2021/05/02 02:01:38;;;;;;;11.57;8.30;;;;;;;5.17;100.00;94635.69;5030647;28;20476;-66
2021/05/02 02:04:07;;;;;;;8.00;7.07;;;;;;;5.12;100.00;94635.75;5030836;28;20037;-65
2021/05/02 02:06:33;;;;;;;8.65;4.65;;;;;;;5.12;100.00;94656.81;5030836;28;20136;-66
2021/05/02 02:09:03;;;;;;;5.93;5.13;;;;;;;5.13;100.00;94657.63;5030819;28;20049;-66
2021/05/02 02:11:30;;;;;;;6.55;4.03;;;;;;;5.04;100.00;94670.63;5032606;28;20059;-64
2021/05/02 02:13:56;;;;;;;4.93;4.32;;;;;;;4.92;100.00;94657.84;5030680;28;20049;-64
2021/05/02 02:16:22;;;;;;;6.40;4.97;;;;;;;4.96;100.00;94650.13;5030523;28;20033;-65
2021/05/02 02:18:48;;;;;;;9.10;4.28;;;;;;;5.08;100.00;94670.84;5030051;28;20037;-64
2021/05/02 02:21:16;;;;;;;5.28;4.53;;;;;;;5.06;100.00;94663.19;5029906;28;20201;-64
2021/05/02 02:23:45;;;;;;;4.43;3.50;;;;;;;5.10;100.00;94666.84;5030580;28;20080;-65
2021/05/02 02:26:21;;;;;;;3.70;3.22;;;;;;;4.94;100.00;94670.72;5032284;28;20017;-64
2021/05/02 02:28:50;;;;;;;4.20;3.20;;;;;;;4.96;100.00;94673.84;5030202;28;20092;-65
2021/05/02 02:31:17;;;;;;;4.35;3.53;;;;;;;5.02;100.00;94677.25;5030075;28;20046;-65
2021/05/02 02:33:43;;;;;;;3.83;3.42;;;;;;;5.02;100.00;94679.88;5030488;28;20120;-64
2021/05/02 02:36:11;;;;;;;4.72;3.78;;;;;;;4.91;100.00;94676.53;5030456;28;20129;-64
2021/05/02 02:38:40;;;;;;;3.95;3.50;;;;;;;4.95;100.00;94680.19;5032013;28;20017;-65
2021/05/02 02:41:05;;;;;;;4.20;3.65;;;;;;;4.91;100.00;94679.16;5030656;28;20067;-65
2021/05/02 02:43:33;;;;;;;5.38;3.88;;;;;;;4.93;100.00;94684.97;5030158;28;20041;-65
2021/05/02 02:46:05;;;;;;;3.17;2.72;;;;;;;4.76;100.00;94697.75;5030071;28;20061;-64
2021/05/02 02:48:33;;;;;;;3.00;1.77;;;;;;;4.76;100.00;94710.94;5028987;28;20029;-66
2021/05/02 02:51:01;;;;;;;5.25;3.95;;;;;;;4.43;100.00;94658.03;5028919;28;20049;-64
2021/05/02 02:53:29;;;;;;;5.25;3.80;;;;;;;4.87;100.00;94721.13;5031826;28;20026;-65
2021/05/02 02:56:09;;;;;;;12.02;4.28;;;;;;;4.89;100.00;94724.25;5029760;28;20041;-65
2021/05/02 02:58:39;;;;;;;3.75;2.58;;;;;;;4.66;100.00;94730.28;5029663;28;20458;-65
2021/05/02 03:01:05;;;;;;;6.85;4.30;;;;;;;4.81;100.00;94729.34;5030077;28;20076;-65
2021/05/02 03:03:32;;;;;;;1.63;1.23;;;;;;;4.23;100.00;94705.56;5029852;28;20037;-64
2021/05/02 03:06:01;;;;;;;3.80;3.05;;;;;;;4.50;100.00;94734.84;5029966;28;20018;-64
2021/05/02 03:08:30;;;;;;;4.15;3.75;;;;;;;4.61;100.00;94736.38;5031580;28;20450;-64
2021/05/02 03:10:56;;;;;;;3.17;2.88;;;;;;;4.38;100.00;94727.31;5029890;28;20037;-64
2021/05/02 03:13:21;;;;;;;1.55;1.45;;;;;;;4.24;100.00;94730.84;5029657;28;20038;-64
2021/05/02 03:15:48;;;;;;;4.25;3.60;;;;;;;4.48;100.00;94741.47;5029735;28;20492;-64
2021/05/02 03:18:50;;;;;;;4.90;3.45;;;;;;;4.44;100.00;94752.53;5029401;28;20030;-64
2021/05/02 03:21:21;;;;;;;3.28;2.97;;;;;;;4.32;100.00;94744.22;5028738;28;20037;-65
2021/05/02 03:23:51;;;;;;;3.05;2.75;;;;;;;4.16;100.00;94748.78;5029776;28;20025;-65
2021/05/02 03:26:23;;;;;;;3.33;3.03;;;;;;;4.37;100.00;94759.19;5031718;28;20093;-65
2021/05/02 03:28:58;;;;;;;3.65;3.33;;;;;;;4.25;100.00;94766.63;5029433;28;20388;-65
2021/05/02 03:31:29;;;;;;;3.55;3.25;;;;;;;4.27;100.00;94769.78;5029332;28;20068;-65
2021/05/02 03:34:01;;;;;;;2.38;2.17;;;;;;;4.31;100.00;94774.25;5029598;28;20133;-65
2021/05/02 03:36:49;;;;;;;4.80;2.58;;;;;;;4.29;100.00;94770.28;5028167;28;20391;-65
2021/05/02 03:39:14;;;;;;;3.40;3.10;;;;;;;3.92;100.00;94763.66;5029783;28;20033;-65
2021/05/02 03:41:40;;;;;;;4.38;3.25;;;;;;;3.92;100.00;94768.91;5027769;28;20117;-66
2021/05/02 03:44:06;;;;;;;4.07;3.67;;;;;;;4.07;100.00;94763.56;5030244;28;20080;-65
2021/05/02 03:46:32;;;;;;;4.10;3.70;;;;;;;4.04;100.00;94776.47;5029494;28;20129;-66
2021/05/02 03:49:01;;;;;;;3.72;3.35;;;;;;;4.46;100.00;94793.63;5029153;28;20044;-66
2021/05/02 03:51:28;;;;;;;5.20;4.07;;;;;;;4.02;100.00;94774.13;5028696;28;20128;-66
2021/05/02 03:53:55;;;;;;;4.25;3.53;;;;;;;4.20;100.00;94806.94;5029320;28;20022;-65
2021/05/02 03:56:33;;;;;;;5.20;4.68;;;;;;;4.33;100.00;94805.56;5031309;28;20470;-66
2021/05/02 03:59:16;;;;;;;7.82;5.57;;;;;;;4.35;100.00;94811.31;5029038;28;20120;-66
2021/05/02 04:01:52;;;;;;;7.93;5.03;;;;;;;4.19;100.00;94823.78;5029212;28;20049;-65
2021/05/02 04:04:23;;;;;;;8.50;6.40;;;;;;;4.36;100.00;94831.34;5029481;28;20041;-64
2021/05/02 04:06:49;;;;;;;6.18;4.97;;;;;;;4.22;100.00;94833.78;5027718;28;20034;-64
2021/05/02 04:09:16;;;;;;;11.90;7.60;;;;;;;4.14;100.00;94826.44;5032419;28;20442;-64
2021/05/02 04:11:43;;;;;;;8.02;6.53;;;;;;;4.09;100.00;94843.03;5032903;28;20065;-66
2021/05/02 04:14:11;;;;;;;8.50;6.13;;;;;;;3.96;100.00;94856.00;5034994;28;20100;-65
2021/05/02 04:16:36;;;;;;;11.07;7.18;;;;;;;3.89;100.00;94828.16;5033085;28;20108;-66
2021/05/02 04:19:04;;;;;;;15.18;10.13;;;;;;;4.19;100.00;94860.63;5032674;28;20526;-65
2021/05/02 04:21:29;;;;;;;13.88;7.28;;;;;;;3.85;100.00;94834.22;5032218;28;20057;-66
2021/05/02 04:23:55;;;;;;;13.55;6.63;;;;;;;3.97;100.00;94865.47;5032907;28;20447;-66
2021/05/02 04:26:22;;;;;;;11.13;6.38;;;;;;;3.92;100.00;94885.47;5034731;28;20029;-64
2021/05/02 04:28:47;;;;;;;14.27;8.85;;;;;;;3.82;100.00;94866.31;5032503;28;20037;-65
2021/05/02 04:31:12;;;;;;;19.13;10.27;;;;;;;3.69;100.00;94857.16;5032284;28;20044;-64
2021/05/02 04:33:38;;;;;;;12.70;6.43;;;;;;;3.72;100.00;94892.63;5032552;28;20033;-66
2021/05/02 04:36:04;;;;;;;28.42;13.02;;;;;;;3.85;100.00;94871.03;5032612;28;20053;-66
2021/05/02 04:38:29;;;;;;;23.60;12.10;;;;;;;3.82;100.00;94897.88;5034059;28;20018;-65
2021/05/02 04:40:55;;;;;;;10.15;6.97;;;;;;;3.78;100.00;94896.81;5032222;28;20122;-67
2021/05/02 04:43:21;;;;;;;22.20;13.50;;;;;;;3.90;100.00;94906.03;5032278;28;20063;-65
2021/05/02 04:45:46;;;;;;;6.88;4.95;;;;;;;3.69;100.00;94901.06;5032356;28;20567;-66
2021/05/02 04:48:12;;;;;;;15.75;9.65;;;;;;;3.78;100.00;94920.50;5032145;28;20042;-65
2021/05/02 04:50:37;;;;;;;25.92;13.73;;;;;;;3.92;100.00;94919.69;5033758;28;20025;-65
2021/05/02 04:53:03;;;;;;;18.13;11.55;;;;;;;3.67;100.00;94892.66;5032207;28;20036;-65
2021/05/02 04:55:29;;;;;;;21.95;10.00;;;;;;;3.76;100.00;94914.72;5032251;28;20114;-65
2021/05/02 04:57:57;;;;;;;12.40;6.90;;;;;;;3.78;100.00;94923.13;5032070;28;20492;-64
2021/05/02 05:00:24;;;;;;;15.35;8.50;;;;;;;3.58;100.00;94911.63;5032102;28;20484;-64
2021/05/02 05:02:49;;;;;;;16.27;10.02;;;;;;;3.85;100.00;94942.09;5031969;28;20033;-64
2021/05/02 05:05:15;;;;;;;22.02;11.40;;;;;;;3.77;100.00;94958.41;5034081;28;20112;-65
2021/05/02 05:07:40;;;;;;;11.05;7.55;;;;;;;3.48;100.00;94950.25;5031693;28;20041;-64
2021/05/02 05:10:06;;;;;;;10.88;6.85;;;;;;;3.48;100.00;94924.78;5031989;28;20045;-64
2021/05/02 05:12:32;;;;;;;15.93;9.43;;;;;;;3.77;100.00;94953.13;5031760;28;20491;-64
2021/05/02 05:14:57;;;;;;;9.50;6.22;;;;;;;3.56;100.00;94966.31;5031811;28;20048;-64
2021/05/02 05:17:22;;;;;;;15.10;8.77;;;;;;;3.50;100.00;94959.47;5033423;28;20595;-65
2021/05/02 05:19:48;;;;;;;15.35;9.50;;;;;;;3.62;100.00;94970.50;5031249;28;20042;-65
2021/05/02 05:22:13;;;;;;;7.82;6.05;;;;;;;3.56;100.00;94978.66;5031219;28;20176;-64
2021/05/02 05:24:39;;;;;;;21.50;12.93;;;;;;;3.69;100.00;94970.25;5031729;28;20069;-64
2021/05/02 05:27:05;;;;;;;25.05;14.60;;;;;;;3.88;100.00;94979.16;5031365;28;20032;-65
2021/05/02 05:29:32;;;;;;;17.38;11.13;;;;;;;3.60;100.00;94975.25;5033551;28;20037;-64
2021/05/02 05:31:57;;;;;;;14.02;8.20;;;;;;;3.51;100.00;94968.94;5031298;28;20060;-64
2021/05/02 05:34:23;;;;;;;18.95;12.55;;;;;;;3.77;100.00;94996.00;5031580;28;20400;-64
2021/05/02 05:36:48;;;;;;;24.23;13.80;;;;;;;3.71;100.00;94968.13;5031255;28;20080;-64
2021/05/02 05:39:13;;;;;;;14.27;8.75;;;;;;;3.53;100.00;94990.50;5031653;28;20033;-65
2021/05/02 05:41:39;;;;;;;20.58;11.27;;;;;;;3.47;100.00;94983.66;5033040;28;20382;-65
2021/05/02 05:44:04;;;;;;;22.52;14.60;;;;;;;3.61;100.00;94994.44;5031454;28;20111;-65
2021/05/02 05:46:30;;;;;;;9.02;6.60;;;;;;;3.50;100.00;94996.28;5031307;28;20033;-65
2021/05/02 05:48:55;;;;;;;14.70;9.27;;;;;;;3.26;100.00;94979.44;5030987;28;20037;-65
2021/05/02 05:51:20;;;;;;;16.10;10.40;;;;;;;3.50;100.00;95001.53;5030308;28;20139;-63
2021/05/02 05:53:46;;;;;;;20.35;12.98;;;;;;;3.66;100.00;95010.22;5030893;28;20434;-64
2021/05/02 05:56:11;;;;;;;23.17;14.50;;;;;;;3.78;100.00;95010.75;5032921;28;20025;-65
2021/05/02 05:58:37;;;;;;;5.80;5.03;;;;;;;3.53;100.00;95011.56;5030763;28;20041;-64
2021/05/02 06:01:02;;;;;;;22.38;13.45;;;;;;;3.52;100.00;94981.03;5030963;28;20480;-64
2021/05/02 06:03:28;;;;;;;23.40;13.85;;;;;;;3.71;100.00;95014.69;5030704;28;20048;-64
2021/05/02 06:05:53;;;;;;;23.38;14.75;;;;;;;3.64;100.00;94997.34;5030675;28;20057;-64
2021/05/02 06:08:18;;;;;;;29.52;16.48;;;;;;;3.84;100.00;95011.56;5032607;28;20079;-65
2021/05/02 06:10:44;;;;;;;25.30;13.68;;;;;;;3.77;100.00;95032.84;5030993;28;20124;-64
2021/05/02 06:13:09;;;;;;;36.50;19.75;;;;;;;4.10;100.00;95014.94;5030652;28;20041;-65
2021/05/02 06:15:35;;;;;;;24.33;13.90;;;;;;;3.90;100.00;95016.53;5030820;28;20037;-65
2021/05/02 06:18:00;;;;;;;24.45;13.48;;;;;;;3.86;100.00;95018.13;5030484;28;20040;-65
2021/05/02 06:20:25;;;;;;;32.75;18.27;;;;;;;4.13;100.00;95019.66;5032086;28;20030;-66
2021/05/02 06:22:51;;;;;;;31.67;16.48;;;;;;;4.20;100.00;95038.63;5030298;28;20045;-65
2021/05/02 06:25:17;;;;;;;26.60;12.85;;;;;;;3.95;100.00;95044.69;5030390;28;20041;-65
2021/05/02 06:27:43;;;;;;;38.13;19.70;;;;;;;4.05;100.00;95036.00;5045588;28;20117;-63
2021/05/02 06:30:09;;;;;;;34.40;17.50;;;;;;;3.48;100.00;94952.88;5029893;28;20081;-63
2021/05/02 06:32:36;;;;;;;51.55;23.58;;;;;;;4.41;100.00;95049.91;5032116;28;20414;-64
2021/05/02 06:35:02;;;;;;;44.13;21.60;;;;;;;4.27;100.00;95051.50;5030398;28;20049;-64
2021/05/02 06:37:28;;;;;;;42.13;21.65;;;;;;;4.29;100.00;95052.00;5029861;28;20045;-64
2021/05/02 06:39:55;;;;;;;50.03;24.25;;;;;;;4.10;100.00;95041.25;5030367;28;20087;-63
2021/05/02 06:42:21;;;;;;;41.10;18.45;;;;;;;3.92;100.00;95035.47;5030084;28;20050;-64
2021/05/02 06:44:46;;;;;;;54.25;25.40;;;;;;;4.18;100.00;95061.78;5030294;28;20387;-64
2021/05/02 06:47:11;;;;;;;61.67;27.58;;;;;;;4.28;100.00;95072.28;5031911;28;20144;-64
2021/05/02 06:49:37;;;;;;;53.42;25.77;;;;;;;4.10;100.00;95057.84;5029802;28;20117;-64
2021/05/02 06:52:02;;;;;;;60.00;26.33;;;;;;;4.02;100.00;95050.47;5029730;28;20084;-66
2021/05/02 06:54:28;;;;;;;60.90;26.70;;;;;;;4.23;100.00;95089.94;5030078;28;20041;-66
2021/05/02 06:56:53;;;;;;;26.48;13.10;;;;;;;3.84;100.00;95077.31;5029663;28;20029;-67
2021/05/02 06:59:19;;;;;;;56.40;21.77;;;;;;;4.13;100.00;95081.00;5031983;28;20035;-65
2021/05/02 07:01:44;;;;;;;76.85;33.03;;;;;;;4.27;100.00;95040.97;5029573;28;20061;-68
2021/05/02 07:04:10;;;;;;;66.00;27.73;;;;;;;4.18;100.00;95075.72;5029807;28;20103;-67
2021/05/02 07:06:35;;;;;;;66.05;29.15;;;;;;;4.36;100.00;95089.41;5029367;28;21105;-65
2021/05/02 07:09:03;;;;;;;52.88;21.25;;;;;;;4.25;100.00;95101.00;5029764;28;20136;-66
2021/05/02 07:11:28;;;;;;;51.75;22.60;;;;;;;4.28;100.00;95097.84;5032266;28;20065;-67
2021/05/02 07:13:54;;;;;;;37.17;15.88;;;;;;;3.98;100.00;95081.00;5030494;28;20058;-63
2021/05/02 07:16:21;;;;;;;80.38;31.98;;;;;;;4.22;100.00;95081.25;5029655;28;20029;-69
2021/05/02 07:18:48;;;;;;;74.88;29.67;;;;;;;4.35;100.00;95106.25;5028117;28;20460;-68
2021/05/02 07:21:15;;;;;;;60.38;25.73;;;;;;;4.49;100.00;95114.41;5029030;28;20127;-68
2021/05/02 07:23:43;;;;;;;54.80;24.33;;;;;;;4.62;100.00;95113.88;5029634;28;20029;-69
2021/05/02 07:26:09;;;;;;;49.13;21.05;;;;;;;4.29;100.00;95112.56;5030747;28;20464;-69
2021/05/02 07:28:34;;;;;;;51.42;21.95;;;;;;;4.24;100.00;95126.53;5029374;28;20091;-68
2021/05/02 07:31:00;;;;;;;80.40;35.17;;;;;;;4.42;100.00;95101.50;5029588;28;20048;-69
2021/05/02 07:33:27;;;;;;;43.47;18.13;;;;;;;4.29;100.00;95117.84;5029378;28;20030;-69
2021/05/02 07:35:52;;;;;;;71.18;32.33;;;;;;;4.37;100.00;95119.94;5029502;28;20117;-69
2021/05/02 07:38:18;;;;;;;45.42;20.45;;;;;;;4.13;100.00;95115.22;5031163;28;20480;-68
2021/05/02 07:40:43;;;;;;;51.00;22.30;;;;;;;4.23;100.00;95130.22;5029478;28;20046;-68
2021/05/02 07:43:10;;;;;;;63.47;28.45;;;;;;;4.24;100.00;95107.31;5029683;28;20488;-68
2021/05/02 07:45:35;;;;;;;55.85;24.40;;;;;;;4.59;100.00;95156.53;5033565;28;20049;-68
2021/05/02 07:48:00;;;;;;;52.88;21.60;;;;;;;4.65;100.00;95166.78;5033386;28;20037;-69
2021/05/02 07:50:26;;;;;;;79.32;35.10;;;;;;;4.85;100.00;95173.88;5034795;28;20037;-70
2021/05/02 07:52:51;;;;;;;79.57;35.10;;;;;;;4.69;100.00;95117.78;5033174;28;20057;-70
2021/05/02 07:55:16;;;;;;;62.05;25.30;;;;;;;4.93;100.00;95172.56;5033248;28;20487;-69
2021/05/02 07:57:42;;;;;;;55.45;25.48;;;;;;;4.78;100.00;95159.41;5032967;28;20045;-69
2021/05/02 08:00:08;;;;;;;60.75;27.13;;;;;;;5.05;100.00;95183.59;5033255;28;20442;-69
2021/05/02 08:02:33;;;;;;;58.55;28.95;;;;;;;4.78;100.00;95146.25;5034833;28;20061;-69
2021/05/02 08:04:59;;;;;;;72.53;33.25;;;;;;;4.87;100.00;95126.19;5033099;28;20153;-68
2021/05/02 08:07:24;;;;;;;45.35;21.13;;;;;;;5.06;100.00;95153.53;5031927;28;20387;-69
2021/05/02 08:09:50;;;;;;;55.63;28.30;;;;;;;4.93;100.00;95162.03;5043542;23;20412;-67
2021/05/02 08:12:17;;;;;;;75.63;35.30;;;;;;;4.98;100.00;95150.69;5032915;28;20033;-71
2021/05/02 08:14:42;;;;;;;27.90;14.13;;;;;;;4.62;100.00;95158.66;5032469;28;20100;-67
2021/05/02 08:17:08;;;;;;;16.25;11.18;;;;;;;4.55;100.00;95182.59;5049985;28;20133;-68
2021/05/02 08:19:33;;;;;;;74.40;32.50;;;;;;;4.80;100.00;95178.38;5047808;28;20041;-68
2021/05/02 08:22:02;;;;;;;63.42;29.55;;;;;;;4.87;100.00;95181.53;5032395;28;20500;-71
2021/05/02 08:24:28;;;;;;;61.97;33.63;;;;;;;5.03;100.00;95209.44;5032903;28;20025;-69
2021/05/02 08:26:53;;;;;;;50.05;26.20;;;;;;;4.74;100.00;95187.34;5031460;28;20021;-66
2021/05/02 08:29:18;;;;;;;74.53;39.63;;;;;;;5.11;100.00;95208.88;5050104;28;20094;-72
2021/05/02 08:31:44;;;;;;;82.32;39.45;;;;;;;5.38;100.00;95223.63;5031614;28;20065;-67
2021/05/02 08:34:09;;;;;;;69.15;33.22;;;;;;;4.91;100.00;95215.00;5031678;28;20472;-73
2021/05/02 08:36:35;;;;;;;56.63;26.50;;;;;;;4.65;100.00;95216.84;5046976;28;20048;-68
2021/05/02 08:39:00;;;;;;;91.20;38.70;;;;;;;4.43;100.00;95190.00;5031152;28;20053;-70
2021/05/02 08:41:26;;;;;;;84.22;38.78;;;;;;;4.64;100.00;95219.75;5034468;28;20029;-75
2021/05/02 08:43:54;;;;;;;79.22;37.55;;;;;;;4.75;100.00;95220.53;5031652;28;20041;-70
2021/05/02 08:46:20;;;;;;;94.88;45.00;;;;;;;4.91;100.00;95241.38;5031083;28;20033;-65
2021/05/02 08:48:46;;;;;;;85.57;43.17;;;;;;;4.73;100.00;95217.41;5030695;28;20041;-68
2021/05/02 08:51:12;;;;;;;97.88;49.17;;;;;;;5.08;99.95;95217.34;5046067;28;20056;-80
2021/05/02 08:53:38;;;;;;;111.18;54.70;;;;;;;5.69;99.17;95217.16;5033581;28;20471;-74
2021/05/02 08:56:09;;;;;;;106.93;51.83;;;;;;;5.78;98.71;95208.66;5034815;28;20038;-82
2021/05/02 08:58:35;;;;;;;83.95;45.53;;;;;;;5.69;98.68;95229.56;5046406;28;20037;-78
2021/05/02 09:01:02;;;;;;;100.57;50.33;;;;;;;5.81;99.40;95226.59;5030897;28;20038;-73
2021/05/02 09:03:45;;;;;;;99.90;49.97;;;;;;;5.30;98.26;95235.50;5029651;28;20037;-70
2021/05/02 09:06:21;;;;;;;120.57;53.78;;;;;;;5.40;99.42;95237.31;5029477;28;20087;-70
2021/05/02 09:08:48;;;;;;;94.50;47.42;;;;;;;5.04;100.00;95244.50;5029251;28;20025;-73
2021/05/02 09:11:15;;;;;;;99.05;45.60;;;;;;;4.18;100.00;95144.16;5033565;28;20025;-74
2021/05/02 09:13:51;;;;;;;83.75;38.97;;;;;;;4.72;100.00;95226.34;5030814;28;20049;-71
2021/05/02 09:16:18;;;;;;;85.25;41.13;;;;;;;4.89;100.00;95238.19;5030639;28;20050;-69
2021/05/02 09:18:51;;;;;;;115.22;52.35;;;;;;;5.22;100.00;95247.38;5030574;28;20499;-76
2021/05/02 09:21:27;;;;;;;104.07;50.03;;;;;;;5.33;100.00;95248.16;5029742;28;20045;-71
2021/05/02 09:23:54;;;;;;;84.35;42.15;;;;;;;5.26;98.39;95249.47;5029451;28;20056;-68
2021/05/02 09:26:28;;;;;;;113.13;53.00;;;;;;;5.63;99.84;95251.72;5033761;28;20471;-68
2021/05/02 09:28:56;;;;;;;71.15;38.40;;;;;;;4.86;98.16;95214.19;5047284;28;20060;-67
2021/05/02 09:31:27;;;;;;;71.03;39.33;;;;;;;4.96;99.52;95251.09;5029986;28;20037;-73
2021/05/02 09:33:53;;;;;;;95.95;50.42;;;;;;;5.61;99.88;95256.50;5046762;28;20040;-71
2021/05/02 09:36:21;;;;;;;69.05;35.38;;;;;;;5.05;99.64;95260.06;5031489;28;20061;-72
2021/05/02 09:38:48;;;;;;;43.67;22.88;;;;;;;4.77;99.55;95255.34;5031058;28;20358;-69
2021/05/02 09:41:15;;;;;;;74.80;39.83;;;;;;;4.81;100.00;95274.81;5033229;28;20398;-75
2021/05/02 09:43:45;;;;;;;81.32;41.47;;;;;;;5.25;100.00;95272.41;5046424;28;20064;-73
2021/05/02 09:49:00;;;;;;;39.72;23.50;;;;;;;5.08;98.73;95264.03;5029632;28;20037;-66
2021/05/02 09:51:28;;;;;;;46.08;26.27;;;;;;;4.67;98.98;95227.94;5027296;28;20030;-66
2021/05/02 09:54:09;;;;;;;91.35;44.05;;;;;;;5.45;100.00;95290.84;5044941;28;20487;-70
2021/05/02 09:56:48;;;;;;;75.38;39.58;;;;;;;5.13;99.33;95209.44;5031847;28;20033;-69
2021/05/02 09:59:32;;;;;;;47.80;27.73;;;;;;;4.10;98.97;95115.75;5045429;28;20036;-71
2021/05/02 10:02:13;;;;;;;74.50;39.90;;;;;;;5.54;100.00;95285.81;5027248;28;20438;-71
2021/05/02 10:04:45;;;;;;;92.85;46.58;;;;;;;5.92;100.00;95286.25;5029257;28;20044;-70
2021/05/02 10:07:13;;;;;;;61.53;31.17;;;;;;;5.59;99.92;95295.56;5030142;28;20037;-70
2021/05/02 10:09:39;;;;;;;43.88;25.65;;;;;;;5.59;98.97;95291.09;5029281;28;20414;-70
2021/05/02 10:12:05;;;;;;;44.40;27.38;;;;;;;5.54;97.57;95259.44;5029700;28;20045;-72
2021/05/02 10:14:33;;;;;;;52.63;33.55;;;;;;;6.56;96.53;95268.75;5032822;28;20033;-71
2021/05/02 10:17:00;;;;;;;52.45;34.20;;;;;;;6.11;95.34;95258.16;5028994;28;20053;-72
2021/05/02 10:19:25;;;;;;;25.80;17.75;;;;;;;5.67;92.26;95258.84;5029014;28;20067;-70
2021/05/02 10:21:51;;;;;;;33.05;24.27;;;;;;;5.86;96.40;95311.06;5045128;28;20088;-70
2021/05/02 10:24:16;;;;;;;38.35;27.58;;;;;;;5.70;95.69;95286.56;5030272;28;20121;-71
2021/05/02 10:26:42;;;;;;;45.80;26.83;;;;;;;5.89;95.83;95310.53;5043792;28;20569;-71
2021/05/02 10:29:08;;;;;;;35.50;23.58;;;;;;;5.57;96.16;95308.22;5047729;28;20017;-71
2021/05/02 10:31:41;;;;;;;41.35;28.67;;;;;;;5.89;94.33;95318.44;5030247;28;20381;-70
2021/05/02 10:34:33;;;;;;;29.58;20.33;;;;;;;5.87;96.42;95329.25;5029210;28;20732;-69
2021/05/02 10:37:23;;;;;;;41.30;28.77;;;;;;;6.74;94.94;95324.38;5045412;28;20037;-69
2021/05/02 10:39:55;;;;;;;40.28;30.55;;;;;;;7.54;92.20;95324.00;5028817;28;20385;-70
2021/05/02 10:42:54;;;;;;;33.58;28.77;;;;;;;7.34;92.43;95326.03;5029957;28;20120;-70
2021/05/02 10:45:36;;;;;;;28.73;25.50;;;;;;;6.93;91.87;95324.50;5022015;28;20069;-69
2021/05/02 10:48:04;;;;;;;;;;;;;;;6.51;92.69;95325.06;5030200;28;20040;-69
2021/05/02 10:50:51;;;;;;;21.92;19.52;;;;;;;6.80;92.38;95326.97;5031417;28;19920;-69
2021/05/02 10:53:18;;;;;;;19.58;17.63;;;;;;;6.43;91.42;95307.91;5030158;28;20038;-69
2021/05/02 10:55:46;;;;;;;19.00;17.33;;;;;;;6.36;90.07;95331.22;5029823;28;20037;-69
2021/05/02 10:58:30;;;;;;;19.30;17.67;;;;;;;5.98;90.35;95330.81;5029269;28;20052;-68
2021/05/02 11:01:08;;;;;;;20.83;18.92;;;;;;;6.27;92.86;95316.97;5029742;28;20041;-67
2021/05/02 11:03:39;;;;;;;16.02;14.48;;;;;;;6.35;89.44;95327.00;5029497;28;20057;-68
2021/05/02 11:06:06;;;;;;;18.40;16.90;;;;;;;7.15;88.48;95328.56;5029512;28;20446;-70
2021/05/02 11:08:59;;;;;;;20.55;18.52;;;;;;;7.49;88.98;95323.25;5031372;28;20036;-68
2021/05/02 11:11:34;;;;;;;19.40;17.70;;;;;;;7.85;90.14;95330.84;5030059;28;20053;-69
2021/05/02 11:17:09;;;;;;;19.45;17.75;;;;;;;7.51;90.09;95324.53;5029439;28;20036;-71
2021/05/02 11:19:35;;;;;;;14.50;13.27;;;;;;;7.32;85.66;95338.75;5029198;28;20037;-70
2021/05/02 11:22:10;;;;;;;19.35;17.42;;;;;;;7.81;87.93;95328.75;5029155;28;20510;-73
2021/05/02 11:24:38;;;;;;;16.58;15.18;;;;;;;6.92;82.79;95344.09;5029695;28;20150;-70
2021/05/02 11:27:14;;;;;;;19.67;18.08;;;;;;;7.34;84.94;95329.47;5028174;28;20038;-70
2021/05/02 11:29:52;;;;;;;22.73;20.60;;;;;;;7.48;87.69;95340.22;5031279;28;20033;-65
2021/05/02 11:32:30;;;;;;;23.20;21.20;;;;;;;7.68;85.74;95340.03;5029968;28;20041;-68
2021/05/02 11:35:04;;;;;;;21.48;19.48;;;;;;;7.71;88.39;95328.06;5028202;28;20044;-68
2021/05/02 11:37:36;;;;;;;20.92;18.83;;;;;;;6.73;88.61;95338.66;5044605;28;20038;-68